Bryce Canyon Airport
KBCE : now visible

Airfield :











YOU CAN JOIN US ON...

 
LOGIN :

Register | Disclaimer

   EN    FR    IT 

 









Legend :    VFR   Marginal VFR   IFR   Intensive IFR   Very Intensive IFR
Visi :
Ceiling :
>= 8 km
>= 3000ft
5 to 8 km
1000 to 3000 ft
1500m to 5 km
500 to 1000 ft
800 to 1500m
200 to 500 ft
< 800m
< 200 ft
Symbols :   Thunderstorms  Fog  Heavy snow  Heavy precipitations  Wind > 20 kt






- Airport Elevation : 7590 ft


KBCE - Bryce Canyon

CURRENT METAR :
  • 141353Z AUTO 13009KT 10SM CLR 04/M07 A3009 RMK AO2 SLP114 T00441072

EXPIRED METARs :
  • 141253Z AUTO 11009KT 10SM CLR 02/M07 A3008 RMK AO2 SLP110 T00171067
  • 141153Z AUTO 12010KT 10SM CLR 03/M07 A3007 RMK AO2 SLP099 T00281072 10039 21017 56003
  • 141053Z AUTO 13006KT 10SM CLR 01/M07 A3007 RMK AO2 SLP102 T00111072
  • 140953Z AUTO 13009KT 10SM CLR 04/M07 A3008 RMK AO2 SLP100 T00391067

TAF KBCE
Valid from the 14 at 12:00 until the 15 at 12:00 UTC


141120Z 1412/1512 14006KT P6SM SKC
FM141600 15015G24KT P6SM SCT100
FM142100 18018G28KT P6SM SCT050 BKN070
FM150300 24010KT P6SM VCSH SCT030 BKN040
KZLC FIR / North America



MET'MAP, your aeronautical weather chart ! - Copyright ORBIFLY December 2007 - Disclaimer

ORBIFLY MET'MAP TEAM :

Programming & Development : Alexandra Zaïnal
Original concept : Baudouin d'Aumeries
Technical & hardware support : Manuel Goepfert
Assistance : Marc-Olivier Méhu




SOURCES & CREDITS :

   NOAA       Earth
Advisory